Time;durP1;ratioP1;P1;durP2;ratioP2;P2;SDS_P1;SDS_P2;PMS_P1;PMS_P2;Temp;Humidity;BMP_temperature;BMP_pressure;BME280_temperature;BME280_humidity;BME280_pressure;Samples;Min_cycle;Max_cycle;Signal;HPM_P1;HPM_P2
2024/02/15 00:00:34;;;;;;;4.65;1.80;;;;;;;7.44;100.00;97754.06;5022699;28;20044;-60
2024/02/15 00:03:00;;;;;;;4.60;1.80;;;;;;;7.44;100.00;97738.72;5021990;28;20072;-61
2024/02/15 00:05:27;;;;;;;4.00;1.95;;;;;;;7.49;100.00;97746.94;5020067;28;20045;-61
2024/02/15 00:07:54;;;;;;;4.30;2.72;;;;;;;7.59;100.00;97748.34;5014876;28;20116;-61
2024/02/15 00:10:24;;;;;;;5.32;2.88;;;;;;;7.63;100.00;97747.66;5014586;28;20435;-61
2024/02/15 00:12:51;;;;;;;3.92;2.08;;;;;;;7.74;100.00;97740.69;5020435;28;20038;-60
2024/02/15 00:15:19;;;;;;;3.10;1.80;;;;;;;7.81;100.00;97748.69;5022558;28;20042;-60
2024/02/15 00:17:46;;;;;;;6.30;2.10;;;;;;;7.84;100.00;97740.16;5016623;28;20052;-61
2024/02/15 00:20:13;;;;;;;3.25;1.65;;;;;;;7.89;100.00;97736.81;5018798;28;20037;-59
2024/02/15 00:22:42;;;;;;;4.00;1.77;;;;;;;7.89;100.00;97743.00;5018693;28;20049;-61
2024/02/15 00:25:10;;;;;;;4.00;2.05;;;;;;;7.73;100.00;97739.03;5022931;28;20044;-61
2024/02/15 00:27:37;;;;;;;5.13;1.60;;;;;;;7.72;100.00;97740.09;5020107;28;20095;-61
2024/02/15 00:30:07;;;;;;;3.88;1.85;;;;;;;7.76;100.00;97735.91;5013423;28;20046;-61
2024/02/15 00:32:34;;;;;;;5.90;1.67;;;;;;;7.69;100.00;97735.16;5018332;28;20051;-61
2024/02/15 00:35:01;;;;;;;9.05;1.90;;;;;;;7.67;100.00;97735.38;5012121;28;20037;-61
2024/02/15 00:37:28;;;;;;;4.13;1.50;;;;;;;7.66;100.00;97735.59;5018124;28;20071;-61
2024/02/15 00:39:55;;;;;;;6.60;1.83;;;;;;;7.63;100.00;97736.88;5015861;28;20041;-62
2024/02/15 00:42:21;;;;;;;7.18;1.80;;;;;;;7.57;100.00;97731.56;5016843;28;20045;-61
2024/02/15 00:44:48;;;;;;;4.55;1.45;;;;;;;7.53;100.00;97732.00;5024662;28;20219;-61
2024/02/15 00:47:15;;;;;;;5.85;2.08;;;;;;;7.49;100.00;97740.75;5025380;28;20546;-61
2024/02/15 00:49:42;;;;;;;4.95;2.40;;;;;;;7.36;100.00;97731.75;5012803;28;20520;-61
2024/02/15 00:52:08;;;;;;;3.65;1.45;;;;;;;7.32;100.00;97735.09;5022414;28;20072;-61
2024/02/15 00:54:35;;;;;;;3.10;1.48;;;;;;;7.28;100.00;97743.66;5013779;28;20055;-61
2024/02/15 00:57:02;;;;;;;4.30;1.80;;;;;;;7.21;100.00;97732.09;5019020;28;20117;-61
2024/02/15 00:59:29;;;;;;;4.47;1.45;;;;;;;7.12;100.00;97742.31;5021440;28;20049;-61
2024/02/15 01:01:55;;;;;;;2.95;1.52;;;;;;;7.04;100.00;97739.91;5012368;28;20050;-61
2024/02/15 01:04:22;;;;;;;2.92;1.55;;;;;;;6.88;100.00;97736.72;5020534;28;20041;-60
2024/02/15 01:06:49;;;;;;;4.03;1.60;;;;;;;6.86;100.00;97738.78;5020066;28;20205;-60
2024/02/15 01:09:15;;;;;;;2.13;1.25;;;;;;;6.82;100.00;97729.50;5017455;28;20092;-60
2024/02/15 01:11:42;;;;;;;3.83;1.40;;;;;;;6.67;100.00;97726.31;5021443;28;20041;-61
2024/02/15 01:14:09;;;;;;;3.47;1.25;;;;;;;6.51;100.00;97725.81;5019167;28;20720;-60
2024/02/15 01:16:36;;;;;;;3.47;1.25;;;;;;;6.42;100.00;97732.47;5016681;28;20054;-61
2024/02/15 01:19:03;;;;;;;4.50;1.38;;;;;;;6.23;100.00;97727.00;5011896;28;20046;-61
2024/02/15 01:21:30;;;;;;;5.13;1.42;;;;;;;6.27;100.00;97743.53;5017887;28;20037;-60
2024/02/15 01:23:57;;;;;;;4.68;1.27;;;;;;;6.24;100.00;97732.16;5018805;28;20041;-61
2024/02/15 01:26:23;;;;;;;4.05;1.10;;;;;;;5.87;100.00;97726.53;5014532;28;20045;-60
2024/02/15 01:28:50;;;;;;;2.70;1.23;;;;;;;5.90;100.00;97730.63;5011544;28;20042;-60
2024/02/15 01:31:17;;;;;;;2.75;1.30;;;;;;;5.91;100.00;97738.50;5020739;28;20095;-60
2024/02/15 01:33:46;;;;;;;4.28;1.45;;;;;;;5.96;100.00;97737.84;5017516;28;20095;-60
2024/02/15 01:36:18;;;;;;;4.00;1.20;;;;;;;5.91;100.00;97734.97;5021976;28;20124;-60
2024/02/15 01:38:44;;;;;;;3.20;1.33;;;;;;;5.88;100.00;97736.22;5022494;28;20064;-62
2024/02/15 01:41:11;;;;;;;3.22;1.50;;;;;;;6.22;100.00;97742.31;5019484;28;20049;-60
2024/02/15 01:43:42;;;;;;;5.43;1.73;;;;;;;6.63;100.00;97736.69;5020436;28;20052;-60
2024/02/15 01:46:10;;;;;;;7.80;2.15;;;;;;;6.63;100.00;97734.00;5016284;28;20133;-60
2024/02/15 01:48:39;;;;;;;5.28;1.90;;;;;;;6.62;100.00;97730.50;5021492;28;20048;-60
2024/02/15 01:51:09;;;;;;;3.97;1.63;;;;;;;6.80;100.00;97739.69;5012999;28;20046;-60
2024/02/15 01:53:37;;;;;;;5.57;1.80;;;;;;;6.66;100.00;97732.75;5012838;28;20144;-61
2024/02/15 01:56:05;;;;;;;4.97;1.85;;;;;;;6.57;100.00;97735.72;5025631;28;20049;-63
2024/02/15 01:58:32;;;;;;;4.78;1.60;;;;;;;6.56;100.00;97728.66;5024230;28;20038;-60
2024/02/15 02:01:01;;;;;;;4.60;1.83;;;;;;;6.41;100.00;97728.97;5020329;28;20084;-61
2024/02/15 02:03:27;;;;;;;4.07;1.65;;;;;;;6.66;100.00;97727.38;5019479;28;20124;-62
2024/02/15 02:05:54;;;;;;;4.97;1.80;;;;;;;7.02;100.00;97728.53;5022800;28;20049;-62
2024/02/15 02:08:22;;;;;;;7.15;2.00;;;;;;;6.90;100.00;97725.75;5016368;28;20037;-62
2024/02/15 02:10:48;;;;;;;7.05;1.67;;;;;;;6.82;100.00;97723.31;5019205;28;20049;-62
2024/02/15 02:13:15;;;;;;;4.47;1.55;;;;;;;6.68;100.00;97720.72;5020544;28;20034;-61
2024/02/15 02:15:42;;;;;;;5.85;1.88;;;;;;;6.46;100.00;97718.41;5006848;28;20042;-60
2024/02/15 02:18:10;;;;;;;3.80;1.50;;;;;;;6.11;100.00;97711.53;5026036;28;20121;-61
2024/02/15 02:20:37;;;;;;;3.63;1.67;;;;;;;6.07;100.00;97721.06;5023710;28;20045;-62
2024/02/15 02:23:26;;;;;;;6.60;2.13;;;;;;;6.02;100.00;97717.34;5021585;28;20618;-62
2024/02/15 02:25:55;;;;;;;4.78;1.88;;;;;;;5.61;100.00;97709.44;5018028;28;20048;-62
2024/02/15 02:28:22;;;;;;;4.10;1.73;;;;;;;5.59;100.00;97717.72;5022466;28;20676;-62
2024/02/15 02:30:49;;;;;;;4.82;2.30;;;;;;;5.43;100.00;97721.69;5021437;28;20535;-62
2024/02/15 02:33:18;;;;;;;6.97;2.22;;;;;;;5.40;100.00;97724.78;5020194;28;20037;-62
2024/02/15 02:35:47;;;;;;;5.18;2.22;;;;;;;5.32;100.00;97723.16;5024370;28;20124;-62
2024/02/15 02:38:14;;;;;;;5.78;2.67;;;;;;;4.94;100.00;97715.75;5024468;28;20041;-62
2024/02/15 02:40:41;;;;;;;4.55;2.20;;;;;;;5.12;100.00;97717.78;5018477;28;20041;-62
2024/02/15 02:43:08;;;;;;;5.65;2.50;;;;;;;5.35;100.00;97729.97;5026744;28;20049;-62
2024/02/15 02:45:34;;;;;;;4.35;2.30;;;;;;;5.33;100.00;97729.34;5020302;28;20104;-62
2024/02/15 02:48:01;;;;;;;5.25;2.50;;;;;;;5.13;100.00;97721.31;5018482;28;20073;-62
2024/02/15 02:50:28;;;;;;;6.32;2.70;;;;;;;5.07;100.00;97731.84;5015689;28;20037;-62
2024/02/15 02:52:54;;;;;;;4.78;2.50;;;;;;;5.08;100.00;97732.66;5016475;28;20066;-62
2024/02/15 02:55:22;;;;;;;4.68;1.83;;;;;;;5.01;100.00;97729.97;5018853;28;20452;-62
2024/02/15 02:57:48;;;;;;;5.63;2.35;;;;;;;4.76;100.00;97727.91;5020336;28;20045;-62
2024/02/15 03:00:17;;;;;;;6.10;2.90;;;;;;;4.74;100.00;97738.03;5017197;28;20092;-62
2024/02/15 03:02:45;;;;;;;5.80;2.47;;;;;;;4.67;100.00;97735.34;5018311;28;20160;-62
2024/02/15 03:05:13;;;;;;;5.10;2.83;;;;;;;4.86;100.00;97754.34;5018346;28;20686;-62
2024/02/15 03:07:44;;;;;;;4.60;2.20;;;;;;;5.08;100.00;97756.81;5023840;28;20429;-62
2024/02/15 03:10:13;;;;;;;5.80;2.33;;;;;;;5.28;100.00;97759.50;5022306;28;20056;-62
2024/02/15 03:12:42;;;;;;;6.00;2.30;;;;;;;5.10;100.00;97730.59;5018518;28;20565;-62
2024/02/15 03:15:12;;;;;;;8.60;2.50;;;;;;;5.26;100.00;97734.72;5014514;28;20112;-62
2024/02/15 03:17:40;;;;;;;7.82;2.83;;;;;;;5.53;100.00;97729.28;5015785;28;20241;-62
2024/02/15 03:20:19;;;;;;;5.95;2.22;;;;;;;5.57;100.00;97732.41;5018627;28;20298;-62
2024/02/15 03:23:00;;;;;;;5.05;2.10;;;;;;;5.54;100.00;97720.22;5017731;28;20052;-62
2024/02/15 03:25:30;;;;;;;5.63;2.28;;;;;;;5.47;100.00;97716.72;5024569;28;20076;-62
2024/02/15 03:28:03;;;;;;;7.33;2.27;;;;;;;5.75;100.00;97734.38;5023350;28;20518;-63
2024/02/15 03:30:31;;;;;;;6.93;2.53;;;;;;;5.89;100.00;97727.13;5021023;28;20272;-62
2024/02/15 03:32:58;;;;;;;8.32;2.33;;;;;;;6.29;100.00;97725.31;5022464;28;20060;-62
2024/02/15 03:35:28;;;;;;;6.90;2.35;;;;;;;6.30;100.00;97714.34;5025207;28;20107;-62
2024/02/15 03:37:56;;;;;;;5.40;2.10;;;;;;;6.38;100.00;97708.69;5026871;28;20544;-62
2024/02/15 03:40:26;;;;;;;4.93;1.80;;;;;;;6.60;100.00;97721.00;5019085;28;20512;-62
2024/02/15 03:42:53;;;;;;;3.67;1.80;;;;;;;6.93;100.00;97711.81;5017287;28;20050;-63
2024/02/15 03:45:22;;;;;;;3.85;2.00;;;;;;;7.14;100.00;97713.31;5024312;28;20120;-62
2024/02/15 03:47:49;;;;;;;6.85;1.88;;;;;;;7.32;100.00;97714.38;5018578;28;20040;-62
2024/02/15 03:50:18;;;;;;;3.78;1.75;;;;;;;7.33;100.00;97710.63;5014947;28;20052;-62
2024/02/15 03:52:45;;;;;;;3.78;1.70;;;;;;;7.30;100.00;97708.41;5014203;28;20077;-62
2024/02/15 03:55:12;;;;;;;4.80;1.77;;;;;;;7.40;100.00;97721.34;5016655;28;20049;-62
2024/02/15 03:57:40;;;;;;;2.72;1.20;;;;;;;7.52;100.00;97716.06;5017349;28;20037;-63
2024/02/15 04:00:10;;;;;;;2.70;1.35;;;;;;;7.45;100.00;97716.13;5023830;28;20117;-63
2024/02/15 04:02:40;;;;;;;4.43;1.50;;;;;;;7.59;100.00;97716.81;5016719;28;20052;-62
2024/02/15 04:05:09;;;;;;;3.22;1.45;;;;;;;7.54;100.00;97711.25;5020482;28;20080;-62
2024/02/15 04:07:36;;;;;;;3.17;1.48;;;;;;;7.59;100.00;97713.31;5020996;28;20639;-63
2024/02/15 04:10:04;;;;;;;6.50;1.50;;;;;;;7.60;100.00;97713.09;5023223;28;20390;-62
2024/02/15 04:12:31;;;;;;;2.80;1.40;;;;;;;7.58;100.00;97720.56;5016227;28;20478;-63
2024/02/15 04:15:05;;;;;;;8.18;1.90;;;;;;;7.60;100.00;97707.69;5013182;28;20579;-62
2024/02/15 04:17:34;;;;;;;3.22;1.58;;;;;;;7.64;100.00;97708.88;5018135;28;20150;-62
2024/02/15 04:20:03;;;;;;;3.97;1.60;;;;;;;7.64;100.00;97702.66;5013732;28;20521;-62
2024/02/15 04:22:36;;;;;;;3.65;1.17;;;;;;;7.66;100.00;97716.72;5018490;28;20037;-62
2024/02/15 04:25:07;;;;;;;4.18;1.50;;;;;;;7.74;100.00;97705.66;5022996;28;20164;-62
2024/02/15 04:27:34;;;;;;;4.35;1.92;;;;;;;7.58;100.00;97707.06;5014926;28;20535;-62
2024/02/15 04:30:02;;;;;;;4.38;1.45;;;;;;;7.60;100.00;97714.94;5022493;28;20056;-62
2024/02/15 04:32:33;;;;;;;2.90;1.50;;;;;;;7.64;100.00;97713.44;5016362;28;20132;-62
2024/02/15 04:35:01;;;;;;;5.05;1.40;;;;;;;7.68;100.00;97701.97;5022990;28;20049;-62
2024/02/15 04:37:31;;;;;;;4.47;1.50;;;;;;;7.63;100.00;97712.59;5023463;28;20136;-62
2024/02/15 04:40:06;;;;;;;3.85;1.58;;;;;;;7.77;100.00;97704.38;5021593;28;20579;-62
2024/02/15 04:42:34;;;;;;;3.85;1.45;;;;;;;7.86;100.00;97707.59;5020105;28;20068;-62
2024/02/15 04:45:01;;;;;;;3.53;1.35;;;;;;;7.92;100.00;97706.69;5025629;28;20518;-63
2024/02/15 04:47:29;;;;;;;3.42;1.40;;;;;;;7.76;100.00;97708.97;5023603;28;20073;-62
2024/02/15 04:49:56;;;;;;;4.00;1.38;;;;;;;7.85;100.00;97706.75;5022753;28;20065;-62
2024/02/15 04:52:23;;;;;;;3.92;1.48;;;;;;;7.67;100.00;97691.44;5007021;28;20135;-63
2024/02/15 04:54:50;;;;;;;4.75;1.48;;;;;;;7.61;100.00;97693.16;5020885;28;20055;-63
2024/02/15 04:57:17;;;;;;;5.78;1.67;;;;;;;7.80;100.00;97690.44;5024687;28;20048;-62
2024/02/15 04:59:47;;;;;;;4.18;1.60;;;;;;;7.89;100.00;97696.38;5015196;28;20045;-62
2024/02/15 05:02:14;;;;;;;6.03;1.80;;;;;;;7.88;100.00;97695.53;5019829;28;20103;-62
2024/02/15 05:04:42;;;;;;;6.63;1.73;;;;;;;7.85;100.00;97692.47;5022106;28;20484;-62
2024/02/15 05:07:09;;;;;;;6.55;2.75;;;;;;;7.69;100.00;97694.72;5017950;28;20055;-62
2024/02/15 05:09:36;;;;;;;7.38;2.72;;;;;;;7.66;100.00;97687.06;5018306;28;20034;-63
2024/02/15 05:12:04;;;;;;;7.03;3.42;;;;;;;7.82;100.00;97688.38;5019384;28;20049;-62
2024/02/15 05:14:31;;;;;;;7.60;2.85;;;;;;;7.70;100.00;97690.97;5020809;28;20037;-62
2024/02/15 05:16:59;;;;;;;5.95;2.10;;;;;;;7.72;100.00;97688.06;5021998;28;20687;-63
2024/02/15 05:19:27;;;;;;;5.78;2.13;;;;;;;7.67;100.00;97680.66;5013671;28;20033;-62
2024/02/15 05:21:54;;;;;;;6.07;2.00;;;;;;;7.61;100.00;97678.84;5015708;28;20116;-62
2024/02/15 05:24:22;;;;;;;4.90;2.08;;;;;;;7.79;100.00;97676.16;5022907;28;20042;-62
2024/02/15 05:26:48;;;;;;;4.60;1.83;;;;;;;7.97;100.00;97676.34;5024956;28;20120;-62
2024/02/15 05:29:16;;;;;;;5.78;2.05;;;;;;;8.03;100.00;97670.03;5021961;28;20390;-62
2024/02/15 05:31:43;;;;;;;4.20;1.52;;;;;;;7.96;100.00;97677.41;5013348;28;20056;-62
2024/02/15 05:34:11;;;;;;;4.90;2.00;;;;;;;8.06;100.00;97666.88;5026490;28;20053;-62
2024/02/15 05:36:39;;;;;;;4.75;1.77;;;;;;;8.01;100.00;97678.38;5016156;28;20445;-61
2024/02/15 05:39:06;;;;;;;6.50;2.30;;;;;;;8.12;100.00;97673.25;5013352;28;20041;-62
2024/02/15 05:41:32;;;;;;;3.45;1.70;;;;;;;7.84;100.00;97682.72;5016906;28;20142;-62
2024/02/15 05:43:59;;;;;;;3.78;1.60;;;;;;;7.85;100.00;97693.28;5021087;28;20625;-61
2024/02/15 05:46:27;;;;;;;6.13;1.95;;;;;;;7.92;100.00;97687.81;5021704;28;20556;-63
2024/02/15 05:48:54;;;;;;;4.20;2.13;;;;;;;7.92;100.00;97688.63;5018162;28;20061;-63
2024/02/15 05:51:22;;;;;;;3.63;1.65;;;;;;;7.80;100.00;97687.75;5028963;28;20067;-62
2024/02/15 05:53:49;;;;;;;3.90;1.88;;;;;;;7.79;100.00;97688.81;5024118;28;20552;-62
2024/02/15 05:56:16;;;;;;;5.00;1.67;;;;;;;7.89;100.00;97691.78;5020586;28;20045;-62
2024/02/15 05:58:43;;;;;;;5.18;1.95;;;;;;;8.06;100.00;97683.06;5016856;28;20060;-62
2024/02/15 06:01:12;;;;;;;5.55;1.58;;;;;;;8.13;100.00;97680.28;5017412;28;20696;-62
2024/02/15 06:03:40;;;;;;;4.82;1.50;;;;;;;8.10;100.00;97675.38;5019788;28;20068;-62
2024/02/15 06:06:07;;;;;;;5.47;1.70;;;;;;;8.02;100.00;97677.31;5028058;28;20045;-62
2024/02/15 06:08:35;;;;;;;4.30;1.90;;;;;;;7.97;100.00;97668.25;5019167;28;20045;-62
2024/02/15 06:11:03;;;;;;;5.07;1.75;;;;;;;7.94;100.00;97683.84;5019721;28;20055;-63
2024/02/15 06:13:31;;;;;;;5.18;1.77;;;;;;;7.85;100.00;97682.50;5018053;28;20054;-63
2024/02/15 06:15:58;;;;;;;5.45;2.00;;;;;;;8.00;100.00;97675.91;5022750;28;20508;-63
2024/02/15 06:18:31;;;;;;;4.50;1.80;;;;;;;8.11;100.00;97671.59;5017296;28;20535;-63
2024/02/15 06:20:59;;;;;;;4.13;1.75;;;;;;;8.04;100.00;97671.69;5013670;28;20059;-63
2024/02/15 06:23:27;;;;;;;3.58;1.60;;;;;;;8.03;100.00;97672.72;5029214;28;20041;-63
2024/02/15 06:25:57;;;;;;;3.75;1.50;;;;;;;8.16;100.00;97682.53;5015827;28;20061;-64
2024/02/15 06:39:38;;;;;;;4.85;1.85;;;;;;;7.94;100.00;97674.94;5016368;28;20099;-65
2024/02/15 06:42:06;;;;;;;3.90;1.92;;;;;;;7.95;100.00;97673.88;5017365;28;20115;-63
2024/02/15 06:44:33;;;;;;;4.15;1.52;;;;;;;7.80;100.00;97685.06;5024385;28;20113;-64
2024/02/15 06:47:00;;;;;;;4.47;2.03;;;;;;;7.75;100.00;97680.34;5018515;28;20049;-65
2024/02/15 06:49:27;;;;;;;4.30;1.65;;;;;;;7.76;100.00;97687.38;5023007;28;20117;-65
2024/02/15 06:51:54;;;;;;;5.75;1.95;;;;;;;7.91;100.00;97689.69;5016452;28;20041;-64
2024/02/15 06:54:22;;;;;;;7.38;2.50;;;;;;;8.02;100.00;97682.72;5021718;28;20567;-64
2024/02/15 06:56:51;;;;;;;5.38;2.33;;;;;;;8.18;100.00;97673.16;5021293;28;20156;-63
2024/02/15 06:59:19;;;;;;;12.52;2.22;;;;;;;8.11;100.00;97674.31;5016071;28;20041;-65
2024/02/15 07:01:45;;;;;;;7.50;2.17;;;;;;;8.07;100.00;97677.44;5019532;28;20069;-61
2024/02/15 07:04:12;;;;;;;5.43;2.08;;;;;;;7.89;100.00;97683.69;5019760;28;20052;-64
2024/02/15 07:06:39;;;;;;;4.55;1.83;;;;;;;7.97;100.00;97673.66;5018483;28;20148;-64
2024/02/15 07:09:06;;;;;;;4.95;2.03;;;;;;;7.88;100.00;97673.97;5020642;28;20488;-64
2024/02/15 07:11:36;;;;;;;7.25;2.40;;;;;;;7.83;100.00;97670.28;5025788;28;20044;-65
2024/02/15 07:14:07;;;;;;;5.18;2.03;;;;;;;7.78;100.00;97671.78;5021062;28;20568;-64
2024/02/15 07:16:33;;;;;;;5.23;1.77;;;;;;;7.85;100.00;97669.00;5020045;28;20045;-64
2024/02/15 07:19:01;;;;;;;3.58;1.50;;;;;;;7.89;100.00;97662.13;5023306;28;20041;-65
2024/02/15 07:21:29;;;;;;;5.05;1.80;;;;;;;7.93;100.00;97657.91;5030739;28;20045;-64
2024/02/15 07:23:56;;;;;;;4.45;1.90;;;;;;;8.01;100.00;97664.06;5017409;28;20125;-65
2024/02/15 07:26:27;;;;;;;5.18;1.65;;;;;;;7.98;100.00;97654.56;5020403;28;20045;-63
2024/02/15 07:28:54;;;;;;;3.90;2.15;;;;;;;7.93;100.00;97649.84;5019365;28;20905;-64
2024/02/15 07:31:21;;;;;;;6.57;2.08;;;;;;;8.07;100.00;97653.19;5020672;28;20160;-65
2024/02/15 07:33:48;;;;;;;4.03;1.83;;;;;;;8.11;100.00;97648.13;5027738;28;20696;-64
2024/02/15 07:36:21;;;;;;;5.57;1.83;;;;;;;8.17;100.00;97646.41;5024282;28;20131;-65
2024/02/15 07:38:52;;;;;;;3.15;1.67;;;;;;;8.28;100.00;97640.22;5019225;28;20686;-65
2024/02/15 07:41:22;;;;;;;4.28;1.65;;;;;;;8.37;100.00;97645.31;5019460;28;20053;-64
2024/02/15 07:43:50;;;;;;;3.88;1.95;;;;;;;8.46;100.00;97642.03;5019794;28;20051;-64
2024/02/15 07:46:17;;;;;;;2.70;1.30;;;;;;;8.57;100.00;97636.91;5027561;28;20037;-64
2024/02/15 07:48:47;;;;;;;3.53;1.67;;;;;;;8.64;100.00;97639.50;5020264;28;20099;-63
2024/02/15 07:51:15;;;;;;;5.22;1.58;;;;;;;8.63;100.00;97633.31;5017299;28;20063;-64
2024/02/15 07:53:42;;;;;;;6.95;2.08;;;;;;;8.59;100.00;97626.72;5028097;28;20500;-64
2024/02/15 07:56:10;;;;;;;4.18;1.45;;;;;;;8.59;100.00;97624.03;5011397;28;20560;-66
2024/02/15 07:58:47;;;;;;;5.47;1.60;;;;;;;8.59;100.00;97627.53;5017024;28;20182;-63
2024/02/15 08:01:22;;;;;;;7.00;2.65;;;;;;;8.67;100.00;97620.97;5029080;28;20052;-65
2024/02/15 08:03:52;;;;;;;5.43;1.75;;;;;;;8.72;100.00;97631.06;5026200;28;20050;-63
2024/02/15 08:06:19;;;;;;;4.00;1.50;;;;;;;8.87;100.00;97638.72;5029979;28;20099;-66
2024/02/15 08:08:47;;;;;;;3.58;1.55;;;;;;;9.00;100.00;97645.78;5019459;28;20069;-65
2024/02/15 08:11:15;;;;;;;4.00;1.40;;;;;;;9.01;100.00;97627.66;5011408;28;20120;-50
2024/02/15 08:13:49;;;;;;;3.45;1.40;;;;;;;9.14;100.00;97629.31;5021457;28;20044;-48
2024/02/15 08:16:22;;;;;;;3.70;1.20;;;;;;;9.19;100.00;97624.84;5019160;28;20048;-54
2024/02/15 08:18:52;;;;;;;3.38;1.35;;;;;;;9.30;100.00;97616.97;5022480;28;20093;-51
2024/02/15 08:21:25;;;;;;;3.25;1.60;;;;;;;9.33;100.00;97617.28;5017496;28;20040;-53
2024/02/15 08:23:51;;;;;;;8.82;2.22;;;;;;;9.27;100.00;97609.31;5015296;28;20107;-46
2024/02/15 08:26:18;;;;;;;3.58;1.63;;;;;;;9.20;100.00;97610.28;5019747;28;20041;-48
2024/02/15 08:28:45;;;;;;;6.32;1.75;;;;;;;9.18;100.00;97600.78;5022758;28;20048;-48
2024/02/15 08:31:14;;;;;;;6.95;2.00;;;;;;;9.15;100.00;97601.25;5018081;28;20049;-49
2024/02/15 08:33:44;;;;;;;5.28;1.75;;;;;;;9.19;100.00;97599.72;5016318;28;20045;-50
2024/02/15 08:36:13;;;;;;;2.97;1.50;;;;;;;9.34;100.00;97594.63;5023265;28;20785;-51
2024/02/15 08:38:41;;;;;;;7.45;1.67;;;;;;;9.26;100.00;97595.00;5017587;28;20053;-49
2024/02/15 08:41:08;;;;;;;4.57;1.85;;;;;;;9.29;100.00;97599.09;5017978;28;20056;-49
2024/02/15 08:43:34;;;;;;;4.28;1.80;;;;;;;9.30;100.00;97596.16;5014302;28;20703;-47
2024/02/15 08:46:01;;;;;;;4.90;1.60;;;;;;;9.44;100.00;97593.19;5013975;28;20049;-47
2024/02/15 08:48:27;;;;;;;5.38;1.98;;;;;;;9.55;100.00;97589.63;5017495;28;20048;-50
2024/02/15 08:50:54;;;;;;;5.15;2.20;;;;;;;9.55;100.00;97583.41;5013581;28;20560;-48
2024/02/15 08:53:21;;;;;;;3.90;1.77;;;;;;;9.56;100.00;97583.19;5018857;28;20080;-47
2024/02/15 08:55:48;;;;;;;5.85;2.00;;;;;;;9.61;100.00;97587.84;5019661;28;20034;-50
2024/02/15 08:58:14;;;;;;;5.00;1.90;;;;;;;9.61;100.00;97585.13;5014079;28;20052;-50
2024/02/15 09:00:44;;;;;;;6.20;1.80;;;;;;;9.66;100.00;97582.53;5012885;28;20127;-51
2024/02/15 09:03:14;;;;;;;3.45;1.65;;;;;;;9.71;100.00;97581.81;5020702;28;20064;-48
2024/02/15 09:05:41;;;;;;;5.57;2.00;;;;;;;9.83;100.00;97581.75;5017381;28;20053;-49
2024/02/15 09:08:07;;;;;;;8.02;2.15;;;;;;;9.73;100.00;97595.94;5018845;28;20053;-47
2024/02/15 09:10:36;;;;;;;5.47;2.00;;;;;;;9.80;100.00;97588.47;5023034;28;20037;-48
2024/02/15 09:13:03;;;;;;;6.82;1.83;;;;;;;9.81;100.00;97589.31;5018209;28;20124;-47
2024/02/15 09:15:30;;;;;;;3.80;1.77;;;;;;;9.88;100.00;97585.38;5020020;28;20041;-49
2024/02/15 09:17:57;;;;;;;4.93;1.83;;;;;;;9.96;100.00;97581.50;5028422;28;20053;-50
2024/02/15 09:20:28;;;;;;;3.35;1.52;;;;;;;9.95;100.00;97584.44;5018937;28;20033;-65
2024/02/15 09:22:56;;;;;;;4.97;1.95;;;;;;;9.99;100.00;97589.09;5014380;28;20057;-65
2024/02/15 09:25:23;;;;;;;4.47;1.42;;;;;;;10.04;100.00;97585.69;5027660;28;20849;-65
2024/02/15 09:27:50;;;;;;;5.60;1.80;;;;;;;9.98;100.00;97584.75;5016131;28;20048;-65
2024/02/15 09:30:17;;;;;;;3.00;1.40;;;;;;;9.94;100.00;97578.19;5017309;28;20107;-64
2024/02/15 09:32:45;;;;;;;4.65;1.48;;;;;;;9.99;100.00;97572.06;5020265;28;20049;-68
2024/02/15 09:35:13;;;;;;;4.93;1.40;;;;;;;10.02;100.00;97577.81;5019610;28;20045;-67
2024/02/15 09:37:45;;;;;;;3.90;1.38;;;;;;;10.13;100.00;97575.25;5014967;28;21416;-68
2024/02/15 09:40:12;;;;;;;;;;;;;;;10.18;100.00;97572.66;5022251;28;20378;-70
2024/02/15 09:42:40;;;;;;;3.05;1.25;;;;;;;10.31;100.00;97576.13;5022875;28;19925;-66
2024/02/15 09:45:12;;;;;;;4.28;1.27;;;;;;;10.38;100.00;97572.19;5016669;28;20050;-65
2024/02/15 09:47:42;;;;;;;3.75;1.20;;;;;;;10.51;100.00;97570.25;5021672;28;20048;-66
2024/02/15 09:50:11;;;;;;;3.35;1.13;;;;;;;10.63;100.00;97576.41;5019984;28;20592;-66
2024/02/15 09:53:06;;;;;;;3.97;1.30;;;;;;;10.72;100.00;97568.66;5015337;28;20099;-66
2024/02/15 09:55:35;;;;;;;3.10;1.20;;;;;;;10.90;100.00;97567.56;5022390;28;20061;-66
2024/02/15 09:58:04;;;;;;;4.78;1.20;;;;;;;10.96;100.00;97562.22;5016381;28;20429;-69
2024/02/15 10:00:31;;;;;;;3.15;1.17;;;;;;;11.03;100.00;97554.75;5022639;28;20041;-64
2024/02/15 10:03:01;;;;;;;3.05;1.10;;;;;;;11.13;100.00;97554.88;5016356;28;20080;-68
2024/02/15 10:05:28;;;;;;;2.40;1.08;;;;;;;11.24;100.00;97561.25;5016917;28;20120;-66
2024/02/15 10:07:54;;;;;;;4.03;1.30;;;;;;;11.38;100.00;97555.44;5023921;28;20049;-68
2024/02/15 10:10:26;;;;;;;4.65;1.10;;;;;;;11.49;100.00;97557.22;5025045;28;20579;-65
2024/02/15 10:12:56;;;;;;;;;;;;;;;11.64;100.00;97550.34;5021745;28;20045;-67
2024/02/15 10:15:30;;;;;;;4.93;1.00;;;;;;;11.69;100.00;97547.66;5025699;28;20012;-66
2024/02/15 10:17:59;;;;;;;2.83;1.13;;;;;;;11.64;100.00;97545.72;5021436;28;20048;-67
2024/02/15 10:20:26;;;;;;;5.72;1.80;;;;;;;11.76;100.00;97539.31;5022994;28;20038;-67
2024/02/15 10:22:59;;;;;;;5.75;1.17;;;;;;;11.87;100.00;97540.25;5021729;28;20794;-67
2024/02/15 10:25:29;;;;;;;3.03;1.00;;;;;;;11.96;100.00;97547.69;5022650;28;20441;-65
2024/02/15 10:28:06;;;;;;;2.80;0.93;;;;;;;11.93;100.00;97539.22;5019683;28;20052;-65
2024/02/15 10:30:34;;;;;;;3.45;1.25;;;;;;;12.02;100.00;97539.56;5020446;28;20041;-67
2024/02/15 10:33:02;;;;;;;3.40;0.90;;;;;;;12.15;100.00;97535.63;5017238;28;20499;-66
2024/02/15 10:35:29;;;;;;;2.97;1.02;;;;;;;12.24;100.00;97534.13;5023996;28;20102;-65
2024/02/15 10:38:10;;;;;;;2.33;1.00;;;;;;;12.42;100.00;97523.94;5021109;28;20052;-66
2024/02/15 10:40:40;;;;;;;4.30;1.00;;;;;;;12.43;100.00;97522.84;5019172;28;20049;-64
2024/02/15 10:43:07;;;;;;;3.70;0.90;;;;;;;12.49;100.00;97521.78;5022100;28;20288;-68
2024/02/15 10:45:36;;;;;;;4.78;1.02;;;;;;;12.59;100.00;97516.44;5022770;28;20073;-69
2024/02/15 10:48:15;;;;;;;2.72;0.95;;;;;;;12.61;100.00;97522.41;5024371;28;20056;-67
2024/02/15 10:50:46;;;;;;;2.55;0.95;;;;;;;12.68;99.89;97524.09;5020034;28;20121;-70
2024/02/15 10:53:26;;;;;;;3.90;1.52;;;;;;;12.76;99.50;97512.75;5027417;28;20095;-66
2024/02/15 10:56:26;;;;;;;3.80;0.90;;;;;;;12.88;99.70;97523.41;5021232;28;20674;-66
2024/02/15 10:59:07;;;;;;;3.30;1.38;;;;;;;13.00;98.92;97512.31;5016337;28;20837;-66
2024/02/15 11:01:37;;;;;;;2.80;0.90;;;;;;;13.07;98.27;97520.22;5018400;28;20144;-66
2024/02/15 11:04:09;;;;;;;4.43;1.20;;;;;;;13.18;97.88;97505.59;5023092;28;20303;-67
2024/02/15 11:06:41;;;;;;;2.10;0.70;;;;;;;13.21;98.78;97506.97;5021833;28;20519;-67
2024/02/15 11:09:11;;;;;;;2.53;0.85;;;;;;;13.26;97.86;97504.25;5020707;28;20056;-66
2024/02/15 11:11:39;;;;;;;2.80;0.90;;;;;;;13.28;94.60;97499.38;5015706;28;20041;-66
2024/02/15 11:14:28;;;;;;;4.00;1.10;;;;;;;13.47;94.90;97491.56;5027497;28;20053;-66
2024/02/15 11:17:02;;;;;;;3.50;0.65;;;;;;;13.28;91.04;97493.94;5019702;28;20087;-66
2024/02/15 11:19:38;;;;;;;1.45;0.50;;;;;;;13.55;91.12;97483.97;5018067;28;20037;-66
2024/02/15 11:22:10;;;;;;;5.50;0.80;;;;;;;13.74;91.64;97481.56;5022739;28;20178;-66
2024/02/15 11:24:46;;;;;;;2.95;0.85;;;;;;;13.76;89.89;97472.06;5024665;28;20532;-66
2024/02/15 11:27:24;;;;;;;1.65;0.70;;;;;;;13.77;87.01;97464.69;5026648;28;20748;-69
2024/02/15 11:29:56;;;;;;;2.38;0.65;;;;;;;13.87;87.47;97470.19;5020643;28;20045;-65
2024/02/15 11:32:56;;;;;;;2.70;0.80;;;;;;;13.98;86.92;97464.72;5021028;28;20045;-66
2024/02/15 11:35:24;;;;;;;2.42;0.80;;;;;;;13.89;87.25;97465.25;5024198;28;20052;-67
2024/02/15 11:37:58;;;;;;;3.22;0.70;;;;;;;14.03;88.31;97470.16;5022621;28;20045;-65
2024/02/15 11:40:49;;;;;;;2.25;0.70;;;;;;;13.96;86.38;97459.53;5017980;28;20086;-65
2024/02/15 11:43:45;;;;;;;2.88;0.80;;;;;;;13.85;87.96;97458.72;5017045;28;20045;-66
2024/02/15 11:46:13;;;;;;;3.35;1.00;;;;;;;13.89;88.87;97462.53;5019369;28;20112;-64
2024/02/15 11:48:40;;;;;;;4.60;0.73;;;;;;;13.94;89.17;97458.19;5026833;28;20049;-66
2024/02/15 11:51:07;;;;;;;4.70;1.10;;;;;;;14.00;88.66;97452.47;5019795;28;20143;-65
2024/02/15 11:53:34;;;;;;;2.85;0.75;;;;;;;14.21;88.90;97451.63;5016126;28;20099;-62